createdAt,value
2022-11-29T00:01:23.332Z,101293.66
2022-11-29T00:03:50.117Z,101291.91
2022-11-29T00:06:18.908Z,101287.50
2022-11-29T00:08:45.481Z,101284.88
2022-11-29T00:11:16.463Z,101281.34
2022-11-29T00:13:42.867Z,101288.38
2022-11-29T00:16:10.543Z,101290.13
2022-11-29T00:18:37.050Z,101284.84
2022-11-29T00:21:07.448Z,101289.25
2022-11-29T00:23:34.338Z,101293.66
2022-11-29T00:26:05.226Z,101295.44
2022-11-29T00:28:31.616Z,101291.88
2022-11-29T00:30:58.072Z,101297.19
2022-11-29T00:33:24.513Z,101288.38
2022-11-29T00:35:50.955Z,101290.13
2022-11-29T00:38:17.332Z,101291.91
2022-11-29T00:40:43.832Z,101291.88
2022-11-29T00:43:10.226Z,101288.38
2022-11-29T00:45:36.690Z,101290.13
2022-11-29T00:48:03.100Z,101290.13
2022-11-29T00:50:29.471Z,101289.25
2022-11-29T00:52:55.875Z,101286.59
2022-11-29T00:55:22.261Z,101287.50
2022-11-29T00:57:48.684Z,101284.84
2022-11-29T01:00:15.720Z,101290.13
2022-11-29T01:02:42.161Z,101291.03
2022-11-29T01:05:08.754Z,101291.03
2022-11-29T01:07:35.196Z,101287.50
2022-11-29T01:10:01.604Z,101289.25
2022-11-29T01:12:28.014Z,101293.66
2022-11-29T01:14:54.521Z,101288.41
2022-11-29T01:17:20.923Z,101297.19
2022-11-29T01:19:50.778Z,101296.31
2022-11-29T01:22:17.581Z,101297.19
2022-11-29T01:24:44.279Z,101294.53
2022-11-29T01:27:11.052Z,101291.03
2022-11-29T01:29:37.450Z,101293.66
2022-11-29T01:32:04.054Z,101306.88
2022-11-29T01:34:30.538Z,101296.31
2022-11-29T01:36:56.928Z,101300.72
2022-11-29T01:39:23.333Z,101299.81
2022-11-29T01:41:49.766Z,101306.88
2022-11-29T01:44:16.050Z,101293.66
2022-11-29T01:46:43.828Z,101302.47
2022-11-29T01:49:23.050Z,101306.00
2022-11-29T01:52:25.767Z,101307.75
2022-11-29T01:54:55.669Z,101307.75
2022-11-29T01:57:21.920Z,101309.50
2022-11-29T01:59:49.647Z,101291.88
2022-11-29T02:02:20.818Z,101309.53
2022-11-29T02:04:47.540Z,101301.59
2022-11-29T02:07:14.278Z,101310.41
2022-11-29T02:09:40.741Z,101313.06
2022-11-29T02:12:25.312Z,101316.56
2022-11-29T02:15:18.674Z,101319.22
2022-11-29T02:18:00.039Z,101321.84
2022-11-29T02:20:35.653Z,101323.63
2022-11-29T02:23:16.952Z,101325.38
2022-11-29T02:25:57.842Z,101323.63
2022-11-29T02:28:24.142Z,101327.13
2022-11-29T02:30:57.583Z,101327.13
2022-11-29T02:33:44.211Z,101324.47
2022-11-29T02:36:16.364Z,101323.63
2022-11-29T02:38:57.945Z,101328.88
2022-11-29T02:41:42.717Z,101327.13
2022-11-29T02:44:14.844Z,101335.03
2022-11-29T02:46:59.537Z,101332.41
2022-11-29T02:50:03.452Z,101335.94
2022-11-29T02:52:36.926Z,101344.75
2022-11-29T02:55:15.923Z,101334.19
2022-11-29T02:57:56.096Z,101336.81
2022-11-29T03:00:22.485Z,101324.47
2022-11-29T03:02:51.932Z,101334.16
2022-11-29T03:05:37.199Z,101340.31
2022-11-29T03:08:21.773Z,101345.63
2022-11-29T03:10:58.087Z,101345.59
2022-11-29T03:13:46.423Z,101355.28
2022-11-29T03:16:23.600Z,101356.16
2022-11-29T03:19:21.340Z,101364.09
2022-11-29T03:22:12.825Z,101363.22
2022-11-29T03:24:49.043Z,101364.09
2022-11-29T03:27:23.878Z,101367.59
2022-11-29T03:29:58.878Z,101365.84
2022-11-29T03:32:54.530Z,101365.84
2022-11-29T03:35:40.844Z,101366.75
2022-11-29T03:38:43.790Z,101364.94
2022-11-29T03:41:10.132Z,101367.59
2022-11-29T03:43:41.866Z,101366.72
2022-11-29T03:46:15.995Z,101370.25
2022-11-29T03:48:46.745Z,101372.91
2022-11-29T03:51:26.441Z,101367.59
2022-11-29T03:53:57.220Z,101371.13
2022-11-29T03:56:34.500Z,101374.66
2022-11-29T03:59:03.739Z,101375.53
2022-11-29T04:01:55.061Z,101380.84
2022-11-29T04:04:53.405Z,101373.75
2022-11-29T04:07:28.666Z,101377.31
2022-11-29T04:10:17.123Z,101377.31
2022-11-29T04:13:11.772Z,101380.81
2022-11-29T04:15:50.062Z,101379.97
2022-11-29T04:18:34.807Z,101383.44
2022-11-29T04:21:04.057Z,101392.25
2022-11-29T04:23:52.255Z,101388.72
2022-11-29T04:26:34.978Z,101388.75
2022-11-29T04:29:20.211Z,101394.91
2022-11-29T04:32:20.600Z,101401.94
2022-11-29T04:34:58.760Z,101406.34
2022-11-29T04:37:42.157Z,101407.25
2022-11-29T04:40:23.605Z,101404.59
2022-11-29T04:42:52.969Z,101412.53
2022-11-29T04:45:36.031Z,101413.41
2022-11-29T04:48:39.046Z,101416.94
2022-11-29T04:51:14.433Z,101419.59
2022-11-29T04:53:57.189Z,101420.47
2022-11-29T04:56:42.225Z,101421.34
2022-11-29T04:59:18.104Z,101419.59
2022-11-29T05:02:07.189Z,101429.28
2022-11-29T05:05:00.839Z,101427.50
2022-11-29T05:07:56.314Z,101423.09
2022-11-29T05:10:35.283Z,101432.78
2022-11-29T05:13:19.875Z,101436.31
2022-11-29T05:16:08.215Z,101432.78
2022-11-29T05:18:59.241Z,101431.03
2022-11-29T05:21:34.505Z,101432.81
2022-11-29T05:24:11.953Z,101429.28
2022-11-29T05:26:48.531Z,101437.19
2022-11-29T05:29:29.818Z,101438.94
2022-11-29T05:32:02.113Z,101444.25
2022-11-29T05:34:37.546Z,101449.53
2022-11-29T05:37:22.654Z,101450.44
2022-11-29T05:40:11.458Z,101451.28
2022-11-29T05:43:07.095Z,101453.94
2022-11-29T05:45:53.298Z,101451.28
2022-11-29T05:48:57.294Z,101453.97
2022-11-29T05:51:29.625Z,101456.59
2022-11-29T05:54:23.521Z,101452.16
2022-11-29T05:57:01.355Z,101461.84
2022-11-29T05:59:28.549Z,101468.00
2022-11-29T06:02:16.714Z,101474.19
2022-11-29T06:05:12.819Z,101474.16
2022-11-29T06:07:41.676Z,101480.34
2022-11-29T06:10:12.084Z,101479.47
2022-11-29T06:12:38.857Z,101490.91
2022-11-29T06:15:56.955Z,101495.28
2022-11-29T06:18:44.915Z,101495.31
2022-11-29T06:21:29.118Z,101494.44
2022-11-29T06:24:26.221Z,101505.84
2022-11-29T06:27:29.744Z,101497.94
2022-11-29T06:30:18.137Z,101496.19
2022-11-29T06:33:05.836Z,101508.50
2022-11-29T06:35:40.805Z,101507.66
2022-11-29T06:38:27.485Z,101522.59
2022-11-29T06:41:00.098Z,101522.56
2022-11-29T06:43:28.325Z,101519.88
2022-11-29T06:46:10.336Z,101525.19
2022-11-29T06:48:47.210Z,101529.56
2022-11-29T06:51:31.475Z,101526.09
2022-11-29T06:54:33.243Z,101534.03
2022-11-29T06:57:34.504Z,101536.66
2022-11-29T07:00:08.898Z,101535.78
2022-11-29T07:02:44.432Z,101542.84
2022-11-29T07:05:30.160Z,101544.59
2022-11-29T07:08:16.529Z,101547.25
2022-11-29T07:10:43.578Z,101553.41
2022-11-29T07:13:13.312Z,101550.78
2022-11-29T07:15:51.333Z,101549.91
2022-11-29T07:18:27.820Z,101550.78
2022-11-29T07:21:07.277Z,101558.69
2022-11-29T07:24:01.642Z,101562.25
2022-11-29T07:26:40.224Z,101564.88
2022-11-29T07:29:06.570Z,101567.50
2022-11-29T07:31:45.710Z,101564.00
2022-11-29T07:34:23.497Z,101567.50
2022-11-29T07:37:13.095Z,101569.22
2022-11-29T07:39:42.383Z,101563.94
2022-11-29T07:42:15.233Z,101566.63
2022-11-29T07:45:15.298Z,101563.09
2022-11-29T07:47:41.724Z,101572.81
2022-11-29T07:50:08.341Z,101566.66
2022-11-29T07:52:34.819Z,101567.50
2022-11-29T07:55:01.783Z,101574.59
2022-11-29T07:57:28.230Z,101577.22
2022-11-29T07:59:54.654Z,101579.88
2022-11-29T08:02:33.840Z,101585.16
2022-11-29T08:05:00.442Z,101588.69
2022-11-29T08:07:31.173Z,101586.03
2022-11-29T08:09:58.831Z,101584.25
2022-11-29T08:12:25.978Z,101586.00
2022-11-29T08:14:52.495Z,101574.53
2022-11-29T08:17:18.882Z,101586.91
2022-11-29T08:19:45.356Z,101593.09
2022-11-29T08:22:12.308Z,101590.44
2022-11-29T08:24:38.713Z,101586.03
2022-11-29T08:27:05.161Z,101588.72
2022-11-29T08:29:31.566Z,101589.56
2022-11-29T08:31:58.072Z,101595.75
2022-11-29T08:34:24.635Z,101594.88
2022-11-29T08:36:51.153Z,101596.66
2022-11-29T08:39:17.534Z,101596.66
2022-11-29T08:41:43.941Z,101603.69
2022-11-29T08:44:10.347Z,101601.94
2022-11-29T08:46:36.764Z,101601.94
2022-11-29T08:49:03.184Z,101605.44
2022-11-29T08:51:29.576Z,101594.84
2022-11-29T08:53:56.031Z,101614.28
2022-11-29T08:59:08.845Z,101611.69
2022-11-29T09:01:35.294Z,101611.69
2022-11-29T09:04:01.758Z,101612.59
2022-11-29T09:06:32.924Z,101611.69
2022-11-29T09:08:59.649Z,101614.34
2022-11-29T09:11:27.041Z,101615.19
2022-11-29T09:13:55.669Z,101623.16
2022-11-29T09:16:24.051Z,101624.91
2022-11-29T09:18:52.186Z,101630.25
2022-11-29T09:21:18.884Z,101624.06
2022-11-29T09:23:45.626Z,101628.47
2022-11-29T09:26:16.391Z,101632.03
2022-11-29T09:28:42.787Z,101640.88
2022-11-29T09:31:14.563Z,101635.59
2022-11-29T09:33:41.105Z,101639.09
2022-11-29T09:36:08.630Z,101652.31
2022-11-29T09:38:35.126Z,101642.63
2022-11-29T09:41:21.638Z,101647.03
2022-11-29T09:44:09.838Z,101644.41
2022-11-29T09:46:58.945Z,101650.59
2022-11-29T09:49:40.343Z,101654.97
2022-11-29T09:52:36.835Z,101655.84
2022-11-29T09:55:26.419Z,101660.22
2022-11-29T09:57:53.213Z,101661.94
2022-11-29T10:00:20.089Z,101661.97
2022-11-29T10:02:52.937Z,101660.22
2022-11-29T10:05:28.730Z,101656.66
2022-11-29T10:08:04.261Z,101669.00
2022-11-29T10:10:42.800Z,101663.72
2022-11-29T10:13:41.958Z,101666.38
2022-11-29T10:16:36.119Z,101666.38
2022-11-29T10:19:05.861Z,101669.06
2022-11-29T10:21:36.466Z,101662.03
2022-11-29T10:24:05.017Z,101660.22
2022-11-29T10:26:35.141Z,101661.09
2022-11-29T10:29:02.043Z,101663.75
2022-11-29T10:31:38.113Z,101663.81
2022-11-29T10:34:13.662Z,101669.06
2022-11-29T10:36:51.007Z,101662.03
2022-11-29T10:39:52.263Z,101661.16
2022-11-29T10:42:20.734Z,101674.38
2022-11-29T10:44:47.429Z,101675.28
2022-11-29T10:47:13.987Z,101669.97
2022-11-29T10:49:40.477Z,101662.94
2022-11-29T10:52:19.469Z,101669.13
2022-11-29T10:54:46.090Z,101665.63
2022-11-29T10:57:22.105Z,101664.75
2022-11-29T11:00:09.482Z,101669.13
2022-11-29T11:02:35.958Z,101663.84
2022-11-29T11:05:03.023Z,101662.09
2022-11-29T11:07:33.474Z,101659.47
2022-11-29T11:09:59.987Z,101662.09
2022-11-29T11:12:28.411Z,101663.88
2022-11-29T11:15:13.157Z,101662.13
2022-11-29T11:17:39.559Z,101665.66
2022-11-29T11:20:18.939Z,101664.78
2022-11-29T11:22:45.345Z,101665.69
2022-11-29T11:25:38.351Z,101669.22
2022-11-29T11:28:20.817Z,101663.03
2022-11-29T11:30:58.292Z,101663.06
2022-11-29T11:33:26.475Z,101671.91
2022-11-29T11:36:21.596Z,101668.34
2022-11-29T11:39:10.712Z,101673.66
2022-11-29T11:41:43.258Z,101673.66
2022-11-29T11:44:45.681Z,101671.00
2022-11-29T11:47:16.067Z,101676.31
2022-11-29T11:50:00.670Z,101672.78
2022-11-29T11:52:41.351Z,101671.88
2022-11-29T11:55:22.106Z,101681.59
2022-11-29T11:58:13.636Z,101675.44
2022-11-29T12:01:02.967Z,101678.97
2022-11-29T12:03:40.063Z,101681.56
2022-11-29T12:06:35.194Z,101682.44
2022-11-29T12:09:30.837Z,101685.06
2022-11-29T12:12:03.371Z,101690.34
2022-11-29T12:14:38.353Z,101682.38
2022-11-29T12:17:37.103Z,101685.06
2022-11-29T12:20:09.678Z,101692.13
2022-11-29T12:22:58.102Z,101685.94
2022-11-29T12:25:27.013Z,101684.19
2022-11-29T12:27:53.437Z,101687.72
2022-11-29T12:30:19.876Z,101694.75
2022-11-29T12:32:49.902Z,101695.63
2022-11-29T12:35:57.936Z,101697.41
2022-11-29T12:38:52.226Z,101707.09
2022-11-29T12:41:39.961Z,101701.84
2022-11-29T12:44:12.309Z,101700.94
2022-11-29T12:46:38.798Z,101703.56
2022-11-29T12:49:17.174Z,101711.50
2022-11-29T12:51:55.603Z,101710.63
2022-11-29T12:54:40.815Z,101716.81
2022-11-29T12:57:25.402Z,101720.34
2022-11-29T13:00:00.843Z,101717.69
2022-11-29T13:02:31.420Z,101717.69
2022-11-29T13:05:09.612Z,101718.63
2022-11-29T13:07:39.039Z,101723.94
2022-11-29T13:10:18.005Z,101721.25
2022-11-29T13:12:47.812Z,101721.28
2022-11-29T13:15:19.430Z,101701.81
2022-11-29T13:18:23.876Z,101715.97
2022-11-29T13:20:50.579Z,101732.72
2022-11-29T13:23:45.474Z,101717.75
2022-11-29T13:26:12.717Z,101728.34
2022-11-29T13:28:42.594Z,101728.34
2022-11-29T13:31:27.223Z,101728.34
2022-11-29T13:34:04.137Z,101726.56
2022-11-29T13:37:07.447Z,101730.97
2022-11-29T13:39:56.002Z,101730.09
2022-11-29T13:42:34.152Z,101731.88
2022-11-29T13:45:28.456Z,101737.13
2022-11-29T13:47:57.623Z,101734.47
2022-11-29T13:50:39.911Z,101730.97
2022-11-29T13:53:21.404Z,101730.97
2022-11-29T13:55:50.002Z,101732.69
2022-11-29T13:58:28.598Z,101741.56
2022-11-29T14:01:00.246Z,101747.75
2022-11-29T14:03:38.764Z,101739.81
2022-11-29T14:06:15.211Z,101745.06
2022-11-29T14:11:48.875Z,101746.81
2022-11-29T14:14:21.516Z,101744.16
2022-11-29T14:16:50.418Z,101745.00
2022-11-29T14:19:24.704Z,101751.22
2022-11-29T14:22:16.741Z,101749.41
2022-11-29T14:24:43.617Z,101743.25
2022-11-29T14:27:13.225Z,101751.19
2022-11-29T14:29:48.896Z,101751.16
2022-11-29T14:32:46.377Z,101753.78
2022-11-29T14:35:12.958Z,101759.09
2022-11-29T14:38:10.257Z,101763.50
2022-11-29T14:40:46.479Z,101765.28
2022-11-29T14:43:32.564Z,101764.41
2022-11-29T14:46:14.171Z,101767.91
2022-11-29T14:48:55.561Z,101764.38
2022-11-29T14:51:23.040Z,101762.63
2022-11-29T14:54:00.598Z,101763.47
2022-11-29T14:56:30.136Z,101764.34
2022-11-29T14:59:34.085Z,101771.41
2022-11-29T15:02:19.439Z,101762.59
2022-11-29T15:04:46.530Z,101759.97
2022-11-29T15:07:15.113Z,101753.81
2022-11-29T15:09:41.529Z,101763.47
2022-11-29T15:12:28.562Z,101763.44
2022-11-29T15:15:10.296Z,101766.13
2022-11-29T15:17:36.525Z,101767.00
2022-11-29T15:20:38.680Z,101761.72
2022-11-29T15:23:07.622Z,101756.41
2022-11-29T15:25:34.350Z,101770.50
2022-11-29T15:28:02.522Z,101767.88
2022-11-29T15:30:44.428Z,101781.09
2022-11-29T15:33:22.505Z,101785.47
2022-11-29T15:35:53.994Z,101778.50
2022-11-29T15:38:21.135Z,101778.47
2022-11-29T15:40:51.273Z,101787.25
2022-11-29T15:43:21.724Z,101794.31
2022-11-29T15:45:52.331Z,101800.47
2022-11-29T15:48:18.692Z,101799.63
2022-11-29T15:51:02.276Z,101813.72
2022-11-29T15:53:42.199Z,101803.13
2022-11-29T15:56:50.398Z,101807.53
2022-11-29T15:59:22.318Z,101812.81
2022-11-29T16:01:50.013Z,101811.06
2022-11-29T16:04:19.509Z,101818.09
2022-11-29T16:06:45.942Z,101817.25
2022-11-29T16:09:17.783Z,101820.81
2022-11-29T16:11:44.305Z,101818.19
2022-11-29T16:14:10.605Z,101819.97
2022-11-29T16:16:37.755Z,101820.84
2022-11-29T16:19:21.845Z,101818.19
2022-11-29T16:22:10.145Z,101823.47
2022-11-29T16:24:40.962Z,101819.03
2022-11-29T16:27:07.390Z,101832.25
2022-11-29T16:29:38.143Z,101837.53
2022-11-29T16:32:26.327Z,101834.94
2022-11-29T16:34:52.850Z,101829.63
2022-11-29T16:37:26.484Z,101837.56
2022-11-29T16:39:56.959Z,101834.94
2022-11-29T16:42:33.258Z,101841.97
2022-11-29T16:45:02.850Z,101830.50
2022-11-29T16:47:30.774Z,101843.72
2022-11-29T16:50:08.862Z,101841.97
2022-11-29T16:52:37.744Z,101840.22
2022-11-29T16:55:04.321Z,101845.50
2022-11-29T16:57:30.825Z,101849.06
2022-11-29T16:59:57.544Z,101853.47
2022-11-29T17:02:24.051Z,101850.78
2022-11-29T17:04:50.954Z,101849.03
2022-11-29T17:07:31.811Z,101856.06
2022-11-29T17:09:58.302Z,101857.81
2022-11-29T17:12:24.863Z,101858.69
2022-11-29T17:14:51.270Z,101863.06
2022-11-29T17:17:18.375Z,101853.38
2022-11-29T17:19:44.895Z,101863.09
2022-11-29T17:22:11.752Z,101864.81
2022-11-29T17:24:43.548Z,101861.31
2022-11-29T17:27:13.861Z,101873.66
2022-11-29T17:29:40.266Z,101866.59
2022-11-29T17:32:06.776Z,101864.81
2022-11-29T17:34:33.310Z,101866.59
2022-11-29T17:36:59.710Z,101874.56
2022-11-29T17:39:32.097Z,101876.31
2022-11-29T17:41:58.555Z,101880.69
2022-11-29T17:44:25.081Z,101881.56
2022-11-29T17:46:51.659Z,101884.16
2022-11-29T17:49:18.032Z,101882.47
2022-11-29T17:51:53.088Z,101891.25
2022-11-29T17:54:20.441Z,101892.13
2022-11-29T17:56:46.872Z,101894.78
2022-11-29T17:59:13.259Z,101895.69
2022-11-29T18:01:39.795Z,101899.22
2022-11-29T18:04:06.319Z,101903.63
2022-11-29T18:06:37.287Z,101903.63
2022-11-29T18:09:04.447Z,101907.16
2022-11-29T18:11:45.339Z,101905.44
2022-11-29T18:14:15.838Z,101903.69
2022-11-29T18:16:42.389Z,101911.59
2022-11-29T18:19:11.193Z,101916.06
2022-11-29T18:21:37.681Z,101913.38
2022-11-29T18:24:05.072Z,101912.50
2022-11-29T18:26:31.954Z,101915.16
2022-11-29T18:28:58.822Z,101923.97
2022-11-29T18:31:28.159Z,101924.84
2022-11-29T18:33:56.843Z,101930.16
2022-11-29T18:36:31.249Z,101924.84
2022-11-29T18:38:59.229Z,101924.84
2022-11-29T18:41:26.006Z,101924.00
2022-11-29T18:44:03.340Z,101933.69
2022-11-29T18:46:29.876Z,101928.41
2022-11-29T18:48:56.333Z,101919.56
2022-11-29T18:51:22.872Z,101917.81
2022-11-29T18:53:49.297Z,101930.16
2022-11-29T18:56:17.502Z,101928.41
2022-11-29T18:58:44.870Z,101932.81
2022-11-29T19:01:13.058Z,101927.50
2022-11-29T19:03:41.359Z,101931.03
2022-11-29T19:06:09.733Z,101936.31
2022-11-29T19:08:36.286Z,101936.34
2022-11-29T19:11:06.302Z,101936.31
2022-11-29T19:13:33.104Z,101938.09
2022-11-29T19:15:59.724Z,101926.56
2022-11-29T19:18:26.181Z,101931.81
2022-11-29T19:20:52.605Z,101935.34
2022-11-29T19:23:19.875Z,101931.84
2022-11-29T19:25:46.471Z,101934.50
2022-11-29T19:28:14.375Z,101935.34
2022-11-29T19:30:41.058Z,101939.78
2022-11-29T19:33:07.895Z,101932.78
2022-11-29T19:35:34.631Z,101927.50
2022-11-29T19:38:01.016Z,101930.16
2022-11-29T19:40:27.442Z,101938.06
2022-11-29T19:42:53.851Z,101931.00
2022-11-29T19:45:20.283Z,101938.94
2022-11-29T19:47:46.684Z,101940.72
2022-11-29T19:50:13.089Z,101940.72
2022-11-29T19:52:39.514Z,101937.16
2022-11-29T19:55:06.268Z,101938.97
2022-11-29T19:57:33.036Z,101947.78
2022-11-29T19:59:59.513Z,101953.94
2022-11-29T20:02:27.021Z,101953.03
2022-11-29T20:04:53.709Z,101958.31
2022-11-29T20:07:20.422Z,101946.91
2022-11-29T20:09:47.558Z,101954.84
2022-11-29T20:12:14.244Z,101947.81
2022-11-29T20:14:40.677Z,101946.91
2022-11-29T20:17:07.111Z,101940.72
2022-11-29T20:19:34.047Z,101948.66
2022-11-29T20:22:00.533Z,101946.00
2022-11-29T20:24:27.014Z,101961.84
2022-11-29T20:26:53.521Z,101956.59
2022-11-29T20:29:20.008Z,101968.06
2022-11-29T20:31:50.795Z,101965.41
2022-11-29T20:34:18.028Z,101949.44
2022-11-29T20:37:09.380Z,101973.34
2022-11-29T20:39:44.029Z,101971.59
2022-11-29T20:42:29.091Z,101968.94
2022-11-29T20:44:57.357Z,101974.19
2022-11-29T20:47:30.468Z,101975.88
2022-11-29T20:49:57.136Z,101969.78
2022-11-29T20:52:44.598Z,101981.25
2022-11-29T20:55:13.718Z,101972.38
2022-11-29T20:57:44.500Z,101968.84
2022-11-29T21:00:11.847Z,101976.81
2022-11-29T21:02:38.591Z,101971.50
2022-11-29T21:05:05.824Z,101969.75
2022-11-29T21:07:32.408Z,101970.59
2022-11-29T21:10:01.348Z,101975.88
2022-11-29T21:12:29.314Z,101975.09
2022-11-29T21:14:56.112Z,101975.97
2022-11-29T21:17:22.746Z,101973.28
2022-11-29T21:19:52.139Z,101975.00
2022-11-29T21:22:34.200Z,101980.28
2022-11-29T21:25:31.226Z,101977.72
2022-11-29T21:28:01.070Z,101975.03
2022-11-29T21:30:27.376Z,101977.66
2022-11-29T21:32:56.608Z,101980.25
2022-11-29T21:35:23.009Z,101983.78
2022-11-29T21:37:49.447Z,101989.03
2022-11-29T21:40:17.205Z,101989.94
2022-11-29T21:42:43.701Z,101981.97
2022-11-29T21:45:15.343Z,101979.41
2022-11-29T21:47:43.744Z,101987.25
2022-11-29T21:50:11.442Z,101987.31
2022-11-29T21:52:40.199Z,101984.66
2022-11-29T21:55:06.856Z,101989.94
2022-11-29T21:57:33.269Z,101991.66
2022-11-29T22:00:00.113Z,101993.44
2022-11-29T22:02:26.644Z,101991.72
2022-11-29T22:04:53.228Z,101994.41
2022-11-29T22:07:19.684Z,101998.81
2022-11-29T22:09:46.107Z,101992.56
2022-11-29T22:12:32.341Z,101994.34
2022-11-29T22:14:58.927Z,102003.97
2022-11-29T22:17:25.359Z,102007.44
2022-11-29T22:19:51.797Z,102009.22
2022-11-29T22:22:18.227Z,102007.44
2022-11-29T22:24:44.841Z,102017.22
2022-11-29T22:27:11.595Z,102015.41
2022-11-29T22:29:38.035Z,102017.19
2022-11-29T22:32:04.704Z,102007.47
2022-11-29T22:34:31.109Z,102018.91
2022-11-29T22:36:57.539Z,102022.47
2022-11-29T22:39:26.078Z,102012.81
2022-11-29T22:41:54.891Z,102009.38
2022-11-29T22:44:21.784Z,102012.91
2022-11-29T22:46:48.493Z,102008.41
2022-11-29T22:49:15.015Z,102019.88
2022-11-29T22:51:41.499Z,102017.19
2022-11-29T22:54:09.029Z,102013.69
2022-11-29T22:56:36.870Z,102018.06
2022-11-29T22:59:03.845Z,102023.28
2022-11-29T23:01:31.227Z,102023.28
2022-11-29T23:03:59.426Z,102021.53
2022-11-29T23:06:30.335Z,102032.97
2022-11-29T23:08:58.209Z,102038.22
2022-11-29T23:11:28.401Z,102036.47
2022-11-29T23:13:54.866Z,102039.13
2022-11-29T23:16:23.291Z,102040.94
2022-11-29T23:18:49.743Z,102037.50
2022-11-29T23:21:31.418Z,102033.97
2022-11-29T23:23:57.703Z,102031.34
2022-11-29T23:26:27.780Z,102034.88
2022-11-29T23:28:54.529Z,102041.94
2022-11-29T23:31:21.060Z,102037.53
2022-11-29T23:33:47.595Z,102032.19
2022-11-29T23:36:14.300Z,102041.00
2022-11-29T23:38:40.715Z,102041.00
2022-11-29T23:41:07.356Z,102036.59
2022-11-29T23:43:35.722Z,102036.56
2022-11-29T23:46:06.332Z,102026.91
2022-11-29T23:48:32.827Z,102018.91
2022-11-29T23:50:59.225Z,102028.63
2022-11-29T23:53:25.650Z,102031.28
2022-11-29T23:56:12.346Z,102026.00
2022-11-29T23:58:38.870Z,102021.63
